Time;durP1;ratioP1;P1;durP2;ratioP2;P2;SDS_P1;SDS_P2;PMS_P1;PMS_P2;Temp;Humidity;BMP_temperature;BMP_pressure;BME280_temperature;BME280_humidity;BME280_pressure;Samples;Min_cycle;Max_cycle;Signal;HPM_P1;HPM_P2
2023/06/21 00:00:37;;;;;;;2.45;2.00;;;;;;;13.53;44.35;99861.44;5076114;28;20032;-54
2023/06/21 00:03:04;;;;;;;4.40;2.25;;;;;;;13.50;44.52;99851.81;5074703;28;20029;-55
2023/06/21 00:05:31;;;;;;;3.78;2.22;;;;;;;13.59;43.33;99867.13;5075892;28;20108;-57
2023/06/21 00:07:56;;;;;;;2.30;2.00;;;;;;;13.58;43.27;99856.47;5087412;28;20032;-54
2023/06/21 00:10:25;;;;;;;8.68;2.25;;;;;;;13.62;43.06;99863.28;5075798;28;20024;-56
2023/06/21 00:12:52;;;;;;;4.03;1.95;;;;;;;13.39;43.21;99827.72;5074866;28;20036;-54
2023/06/21 00:15:18;;;;;;;4.40;3.45;;;;;;;13.56;43.97;99861.16;5074497;28;20112;-54
2023/06/21 00:17:43;;;;;;;4.18;3.42;;;;;;;13.54;44.47;99863.16;5060669;28;20115;-52
2023/06/21 00:20:10;;;;;;;4.10;2.63;;;;;;;13.49;43.99;99861.75;5073727;28;20076;-53
2023/06/21 00:22:37;;;;;;;4.53;2.80;;;;;;;13.52;43.97;99882.13;5075772;28;20037;-56
2023/06/21 00:25:03;;;;;;;3.35;3.03;;;;;;;13.33;44.83;99861.41;5075444;28;20359;-56
2023/06/21 00:27:29;;;;;;;3.38;2.60;;;;;;;13.39;44.96;99877.00;5076265;28;20029;-57
2023/06/21 00:29:55;;;;;;;4.03;3.00;;;;;;;13.35;45.32;99875.56;5066660;28;20418;-59
2023/06/21 00:32:20;;;;;;;7.15;4.13;;;;;;;13.32;45.79;99870.47;5094909;28;20040;-57
2023/06/21 00:34:47;;;;;;;3.00;2.70;;;;;;;13.32;45.72;99881.22;5092693;28;20032;-53
2023/06/21 00:37:16;;;;;;;4.88;2.90;;;;;;;13.29;46.22;99879.69;5087172;28;20032;-56
2023/06/21 00:39:41;;;;;;;3.55;2.72;;;;;;;13.24;46.38;99876.53;5073050;28;20064;-56
2023/06/21 00:42:08;;;;;;;3.25;2.55;;;;;;;13.23;46.62;99882.91;5090281;28;20066;-54
2023/06/21 00:44:34;;;;;;;2.90;2.28;;;;;;;13.18;46.47;99877.09;5092043;28;20540;-53
2023/06/21 00:47:00;;;;;;;3.60;2.92;;;;;;;13.20;47.09;99885.88;5090686;28;20032;-57
2023/06/21 00:49:27;;;;;;;3.60;2.55;;;;;;;13.18;46.24;99879.78;5090128;28;20110;-57
2023/06/21 00:51:57;;;;;;;4.32;2.70;;;;;;;13.17;46.93;99894.22;5088803;28;20440;-56
2023/06/21 00:54:27;;;;;;;4.53;2.75;;;;;;;13.14;47.06;99883.75;5089910;28;20032;-54
2023/06/21 00:56:53;;;;;;;5.03;2.97;;;;;;;13.02;47.27;99875.84;5073808;28;20032;-57
2023/06/21 00:59:19;;;;;;;4.03;2.90;;;;;;;13.17;46.95;99902.28;5073703;28;20103;-57
2023/06/21 01:01:46;;;;;;;2.92;2.45;;;;;;;13.16;47.04;99895.22;5074868;28;20115;-57
2023/06/21 01:04:12;;;;;;;4.65;3.00;;;;;;;13.20;46.94;99888.56;5073556;28;20039;-55
2023/06/21 01:06:55;;;;;;;2.75;2.15;;;;;;;13.28;46.63;99880.69;5073674;28;20032;-55
2023/06/21 01:09:43;;;;;;;3.80;2.90;;;;;;;13.21;46.45;99863.38;5075018;28;20039;-56
2023/06/21 01:12:17;;;;;;;3.45;2.60;;;;;;;13.31;46.83;99891.16;5085484;28;20028;-60
2023/06/21 01:14:49;;;;;;;5.43;2.80;;;;;;;13.30;46.75;99891.28;5073318;28;20047;-57
2023/06/21 01:17:17;;;;;;;3.70;2.80;;;;;;;13.27;47.20;99895.09;5082677;28;20032;-60
2023/06/21 01:20:13;;;;;;;5.07;2.42;;;;;;;13.44;47.22;99898.97;5073218;28;20044;-57
2023/06/21 01:22:51;;;;;;;4.15;2.33;;;;;;;13.44;47.06;99901.66;5072545;28;20040;-58
2023/06/21 01:25:45;;;;;;;10.90;3.53;;;;;;;13.48;47.49;99907.59;5072058;28;20040;-55
2023/06/21 01:28:30;;;;;;;10.32;3.20;;;;;;;13.48;47.76;99905.75;5089056;28;20032;-54
2023/06/21 01:30:58;;;;;;;5.65;3.20;;;;;;;13.39;48.51;99903.91;5072692;28;20064;-56
2023/06/21 01:33:26;;;;;;;3.70;2.90;;;;;;;13.39;48.49;99897.66;5061821;28;20032;-54
2023/06/21 01:35:54;;;;;;;7.65;3.35;;;;;;;13.38;48.58;99909.41;5082128;28;20096;-53
2023/06/21 01:38:20;;;;;;;6.78;3.17;;;;;;;13.39;48.73;99908.41;5091716;28;20043;-55
2023/06/21 01:40:46;;;;;;;8.02;3.40;;;;;;;13.41;48.69;99911.81;5091353;28;20420;-54
2023/06/21 01:43:13;;;;;;;7.38;3.40;;;;;;;13.43;48.87;99915.22;5091471;28;20032;-53
2023/06/21 01:45:39;;;;;;;12.35;4.13;;;;;;;13.46;48.82;99917.63;5091393;28;20115;-54
2023/06/21 01:48:05;;;;;;;7.70;3.90;;;;;;;13.51;49.02;99919.91;5092982;28;20063;-53
2023/06/21 01:50:32;;;;;;;5.35;3.55;;;;;;;13.59;49.00;99920.06;5092249;28;20480;-57
2023/06/21 01:52:58;;;;;;;10.73;3.75;;;;;;;13.63;49.24;99916.94;5071661;28;20402;-59
2023/06/21 01:55:25;;;;;;;7.82;3.85;;;;;;;13.65;48.94;99919.50;5073002;28;20136;-55
2023/06/21 01:57:52;;;;;;;5.32;3.30;;;;;;;13.71;48.91;99918.06;5087583;28;20031;-52
2023/06/21 02:00:21;;;;;;;9.77;4.15;;;;;;;13.78;49.05;99919.22;5078781;28;20042;-55
2023/06/21 02:02:52;;;;;;;10.38;3.90;;;;;;;13.87;49.10;99920.22;5074887;28;20032;-53
2023/06/21 02:05:19;;;;;;;11.27;4.03;;;;;;;13.87;49.23;99915.66;5072450;28;20028;-56
2023/06/21 02:07:46;;;;;;;11.18;4.05;;;;;;;13.99;49.25;99926.28;5075556;28;20036;-53
2023/06/21 02:10:14;;;;;;;6.35;3.88;;;;;;;13.90;49.04;99904.59;5084058;28;20412;-59
2023/06/21 02:12:41;;;;;;;7.75;4.05;;;;;;;14.12;49.14;99926.81;5069046;28;20431;-55
2023/06/21 02:15:08;;;;;;;6.65;3.92;;;;;;;14.23;49.13;99927.63;5092411;28;20035;-56
2023/06/21 02:17:34;;;;;;;6.03;4.18;;;;;;;14.40;48.85;99924.19;5091090;28;20039;-60
2023/06/21 02:20:12;;;;;;;9.45;4.32;;;;;;;14.58;47.90;99931.53;5080343;28;20044;-55
2023/06/21 02:22:39;;;;;;;8.65;4.82;;;;;;;14.86;47.34;99928.88;5087984;28;20032;-58
2023/06/21 02:25:05;;;;;;;6.25;3.80;;;;;;;15.10;46.66;99927.47;5073448;28;20028;-60
2023/06/21 02:27:30;;;;;;;9.15;4.70;;;;;;;15.34;46.63;99926.91;5074640;28;20038;-57
2023/06/21 02:29:56;;;;;;;14.75;5.40;;;;;;;15.60;46.76;99931.56;5081300;28;20028;-53
2023/06/21 02:32:22;;;;;;;19.02;5.85;;;;;;;15.85;46.73;99931.78;5090900;28;20039;-56
2023/06/21 02:34:47;;;;;;;16.70;5.65;;;;;;;16.11;46.24;99923.72;5081440;28;20125;-56
2023/06/21 02:37:13;;;;;;;15.35;6.05;;;;;;;16.47;45.93;99931.75;5074232;28;20031;-54
2023/06/21 02:39:39;;;;;;;18.95;6.13;;;;;;;16.89;45.16;99934.66;5090613;28;20434;-56
2023/06/21 02:42:04;;;;;;;16.67;6.53;;;;;;;17.24;44.55;99937.31;5089777;28;20032;-52
2023/06/21 02:44:30;;;;;;;18.02;5.95;;;;;;;17.31;43.22;99900.50;5092857;28;20032;-55
2023/06/21 02:46:56;;;;;;;17.90;6.22;;;;;;;17.75;42.57;99940.81;5090604;28;20113;-55
2023/06/21 02:49:22;;;;;;;14.18;6.00;;;;;;;17.94;42.05;99936.94;5081012;28;20051;-53
2023/06/21 02:51:51;;;;;;;12.95;5.60;;;;;;;18.14;41.68;99939.34;5071760;28;20420;-52
2023/06/21 02:54:17;;;;;;;17.08;6.13;;;;;;;18.22;41.20;99943.91;5072222;28;20029;-56
2023/06/21 02:56:43;;;;;;;16.48;5.75;;;;;;;18.40;40.90;99938.28;5071815;28;20039;-53
2023/06/21 02:59:09;;;;;;;14.10;5.82;;;;;;;18.66;40.58;99945.34;5083931;28;20028;-52
2023/06/21 03:01:35;;;;;;;17.63;6.13;;;;;;;19.14;39.52;99936.38;5089152;28;20461;-56
2023/06/21 03:04:00;;;;;;;16.17;6.22;;;;;;;19.51;38.69;99937.50;5092745;28;20039;-52
2023/06/21 03:06:29;;;;;;;12.80;6.50;;;;;;;19.93;37.53;99944.34;5088652;28;20024;-59
2023/06/21 03:08:58;;;;;;;12.77;6.82;;;;;;;20.22;37.01;99945.44;5089889;28;20032;-55
2023/06/21 03:11:24;;;;;;;14.32;6.75;;;;;;;20.46;36.15;99953.56;5076434;28;20033;-54
2023/06/21 03:13:49;;;;;;;14.98;7.07;;;;;;;20.78;35.81;99948.78;5073912;28;20144;-57
2023/06/21 03:16:15;;;;;;;12.35;7.13;;;;;;;20.88;35.33;99948.53;5072709;28;20029;-58
2023/06/21 03:18:41;;;;;;;17.00;7.20;;;;;;;21.03;35.15;99941.22;5070796;28;20122;-54
2023/06/21 03:21:08;;;;;;;9.85;7.00;;;;;;;21.08;34.87;99946.06;5072877;28;20047;-55
2023/06/21 03:23:33;;;;;;;13.77;7.38;;;;;;;21.12;35.02;99938.38;5072362;28;20047;-55
2023/06/21 03:25:59;;;;;;;10.68;7.00;;;;;;;21.35;34.66;99947.25;5072733;28;20394;-56
2023/06/21 03:28:24;;;;;;;13.23;7.00;;;;;;;21.64;34.15;99956.38;5071185;28;20402;-53
2023/06/21 03:30:50;;;;;;;10.85;7.28;;;;;;;21.79;34.24;99930.97;5073458;28;20085;-55
2023/06/21 03:33:16;;;;;;;14.38;7.88;;;;;;;22.16;33.41;99942.59;5093390;28;20443;-57
2023/06/21 03:35:42;;;;;;;18.08;7.55;;;;;;;22.54;32.86;99946.88;5092578;28;20111;-55
2023/06/21 03:38:08;;;;;;;15.35;6.55;;;;;;;22.89;32.57;99938.72;5092151;28;20040;-55
2023/06/21 03:40:33;;;;;;;10.55;6.30;;;;;;;23.54;31.47;99947.59;5075336;28;20024;-57
2023/06/21 03:42:59;;;;;;;10.38;5.95;;;;;;;24.16;30.70;99934.66;5075989;28;20032;-57
2023/06/21 03:45:25;;;;;;;8.73;6.13;;;;;;;24.80;29.97;99954.16;5075226;28;20359;-53
2023/06/21 03:47:50;;;;;;;10.85;6.25;;;;;;;25.23;29.46;99954.63;5076745;28;20482;-57
2023/06/21 03:50:16;;;;;;;8.77;6.25;;;;;;;25.43;28.73;99942.72;5074662;28;20115;-55
2023/06/21 03:52:41;;;;;;;7.50;6.00;;;;;;;25.69;29.01;99951.88;5081283;28;20029;-56
2023/06/21 03:55:08;;;;;;;12.55;6.60;;;;;;;25.77;27.89;99924.19;5074834;28;20408;-59
2023/06/21 03:57:34;;;;;;;8.88;6.03;;;;;;;26.45;27.40;99955.53;5074821;28;20025;-57
2023/06/21 04:00:00;;;;;;;8.05;5.90;;;;;;;26.76;27.14;99948.22;5076014;28;20595;-58
2023/06/21 04:02:25;;;;;;;11.65;5.82;;;;;;;27.10;26.41;99952.53;5076618;28;20454;-54
2023/06/21 04:04:51;;;;;;;9.52;5.28;;;;;;;27.60;25.44;99956.97;5074890;28;20040;-56
2023/06/21 04:07:19;;;;;;;7.72;5.30;;;;;;;28.03;24.93;99952.31;5074059;28;20043;-55
2023/06/21 04:09:45;;;;;;;6.80;5.50;;;;;;;28.63;24.05;99954.03;5073690;28;20032;-60
2023/06/21 04:12:11;;;;;;;6.60;5.00;;;;;;;29.32;22.73;99951.66;5073885;28;20035;-54
2023/06/21 04:14:37;;;;;;;8.48;5.28;;;;;;;29.91;22.25;99934.81;5074953;28;20051;-58
2023/06/21 04:17:03;;;;;;;7.95;5.25;;;;;;;30.53;21.32;99951.53;5075411;28;20033;-59
2023/06/21 04:19:28;;;;;;;10.98;5.40;;;;;;;30.83;21.11;99952.25;5075636;28;20055;-54
2023/06/21 04:21:55;;;;;;;8.10;4.90;;;;;;;30.45;20.90;99938.16;5076795;28;20037;-59
2023/06/21 04:24:20;;;;;;;10.07;5.03;;;;;;;30.71;21.20;99944.91;5075107;28;20037;-56
2023/06/21 04:26:47;;;;;;;7.68;5.20;;;;;;;31.32;20.36;99945.97;5075067;28;20040;-58
2023/06/21 04:29:16;;;;;;;6.55;4.57;;;;;;;32.17;18.95;99944.56;5075695;28;20056;-59
2023/06/21 04:31:43;;;;;;;8.73;5.30;;;;;;;32.84;18.69;99953.31;5074236;28;20095;-59
2023/06/21 04:34:08;;;;;;;9.68;5.15;;;;;;;33.51;17.99;99949.97;5073675;28;20059;-58
2023/06/21 04:36:34;;;;;;;8.30;4.65;;;;;;;34.15;17.56;99950.63;5074837;28;20060;-56
2023/06/21 04:39:00;;;;;;;8.32;5.03;;;;;;;34.55;16.68;99938.94;5075286;28;20113;-59
2023/06/21 04:41:25;;;;;;;5.22;4.53;;;;;;;35.00;15.93;99959.38;5075275;28;20044;-59
2023/06/21 04:43:51;;;;;;;4.82;3.85;;;;;;;34.22;16.34;99962.28;5084402;28;20134;-58
2023/06/21 04:46:18;;;;;;;6.60;4.57;;;;;;;32.64;18.11;99959.59;5074573;28;20028;-59
2023/06/21 04:48:46;;;;;;;7.28;4.38;;;;;;;32.52;18.17;99958.94;5075081;28;20335;-60
2023/06/21 04:51:15;;;;;;;5.47;3.55;;;;;;;32.87;17.79;99960.28;5073472;28;20516;-54
2023/06/21 04:53:45;;;;;;;6.60;3.65;;;;;;;33.01;16.98;99958.69;5074817;28;20067;-62
2023/06/21 04:56:12;;;;;;;4.32;3.30;;;;;;;34.09;16.06;99953.66;5074727;28;20031;-62
2023/06/21 04:58:39;;;;;;;6.55;4.70;;;;;;;33.46;16.00;99961.94;5073639;28;20095;-58
2023/06/21 05:01:06;;;;;;;7.55;3.55;;;;;;;31.60;18.00;99961.50;5074536;28;20370;-58
2023/06/21 05:03:32;;;;;;;5.10;2.90;;;;;;;29.78;19.18;99957.19;5080325;28;20180;-59
2023/06/21 05:06:01;;;;;;;6.28;2.55;;;;;;;28.35;20.77;99968.53;5088478;28;20028;-54
2023/06/21 05:08:27;;;;;;;6.25;2.92;;;;;;;27.35;21.89;99958.75;5077812;28;20362;-60
2023/06/21 05:10:53;;;;;;;6.40;3.42;;;;;;;27.73;21.99;99951.28;5081187;28;20024;-53
2023/06/21 05:13:18;;;;;;;4.38;2.47;;;;;;;28.16;21.24;99954.84;5075224;28;20028;-60
2023/06/21 05:15:44;;;;;;;8.80;2.78;;;;;;;27.16;21.89;99935.13;5073307;28;20027;-60
2023/06/21 05:18:10;;;;;;;3.47;2.35;;;;;;;27.44;21.65;99953.78;5084589;28;20025;-58
2023/06/21 05:20:36;;;;;;;2.85;2.20;;;;;;;27.11;21.08;99943.22;5072812;28;20499;-54
2023/06/21 05:23:01;;;;;;;9.30;3.05;;;;;;;27.65;20.79;99957.94;5072292;28;20033;-60
2023/06/21 05:25:27;;;;;;;4.47;2.78;;;;;;;27.89;20.88;99918.69;5072596;28;20020;-60
2023/06/21 05:27:53;;;;;;;4.30;2.53;;;;;;;28.98;19.33;99960.59;5072865;28;20024;-58
2023/06/21 05:30:18;;;;;;;3.15;2.22;;;;;;;29.34;18.70;99957.75;5072740;28;20024;-56
2023/06/21 05:32:44;;;;;;;2.95;2.53;;;;;;;28.18;19.82;99958.22;5071002;28;20494;-59
2023/06/21 05:35:10;;;;;;;3.85;2.70;;;;;;;28.23;20.20;99952.00;5071399;28;20043;-60
2023/06/21 05:37:36;;;;;;;4.85;2.80;;;;;;;30.32;18.17;99955.91;5072628;28;20412;-59
2023/06/21 05:40:06;;;;;;;4.00;2.50;;;;;;;31.42;16.70;99950.78;5073804;28;20024;-61
2023/06/21 05:42:32;;;;;;;4.80;2.80;;;;;;;32.66;15.23;99957.38;5072013;28;20351;-60
2023/06/21 05:44:57;;;;;;;4.80;2.25;;;;;;;34.14;14.06;99962.03;5092899;28;20035;-58
2023/06/21 05:47:23;;;;;;;4.05;2.30;;;;;;;35.42;12.93;99945.22;5079032;28;20036;-60
2023/06/21 05:49:48;;;;;;;4.38;2.00;;;;;;;36.67;11.75;99953.44;5071652;28;20028;-60
2023/06/21 05:52:15;;;;;;;5.43;2.20;;;;;;;37.51;11.10;99959.69;5073016;28;20036;-63
2023/06/21 05:54:43;;;;;;;6.75;2.38;;;;;;;38.12;10.41;99957.88;5073808;28;20186;-61
2023/06/21 05:57:09;;;;;;;6.95;2.50;;;;;;;37.72;10.96;99960.19;5072126;28;20024;-59
2023/06/21 05:59:35;;;;;;;6.90;2.72;;;;;;;38.27;10.21;99964.31;5071902;28;20031;-56
2023/06/21 06:02:01;;;;;;;5.63;2.50;;;;;;;39.26;9.56;99955.66;5071830;28;20358;-69
2023/06/21 06:04:26;;;;;;;9.70;3.10;;;;;;;39.85;9.08;99952.13;5074420;28;20036;-69
2023/06/21 06:06:51;;;;;;;6.95;2.40;;;;;;;40.32;8.59;99953.75;5072106;28;20039;-69
2023/06/21 06:09:17;;;;;;;6.25;2.03;;;;;;;40.67;8.30;99959.50;5072494;28;20028;-70
2023/06/21 06:11:43;;;;;;;3.38;2.00;;;;;;;41.16;7.59;99958.69;5073262;28;20071;-69
2023/06/21 06:14:12;;;;;;;3.35;2.42;;;;;;;41.78;7.42;99962.41;5069228;28;20387;-70
2023/06/21 06:16:38;;;;;;;4.25;2.58;;;;;;;42.64;6.86;99961.69;5072776;28;20028;-71
2023/06/21 06:19:04;;;;;;;9.57;2.65;;;;;;;42.04;7.08;99925.00;5072089;28;20356;-70
2023/06/21 06:21:29;;;;;;;2.50;2.30;;;;;;;41.86;7.10;99957.91;5071143;28;20091;-70
2023/06/21 06:23:55;;;;;;;2.38;2.13;;;;;;;42.31;7.09;99951.84;5071377;28;20363;-69
2023/06/21 06:26:23;;;;;;;3.80;2.22;;;;;;;43.02;6.98;99963.69;5076296;28;20112;-70
2023/06/21 06:28:52;;;;;;;3.83;1.92;;;;;;;44.09;6.18;99955.19;5072417;28;20346;-71
2023/06/21 06:31:19;;;;;;;5.25;2.38;;;;;;;43.92;6.08;99957.03;5072248;28;20025;-70
2023/06/21 06:33:45;;;;;;;4.65;2.03;;;;;;;43.79;5.83;99946.91;5072515;28;20060;-71
2023/06/21 06:36:10;;;;;;;4.28;2.28;;;;;;;44.34;5.57;99932.69;5072438;28;20063;-70
2023/06/21 06:38:36;;;;;;;3.95;1.95;;;;;;;44.58;5.42;99935.56;5071957;28;20344;-71
2023/06/21 06:41:01;;;;;;;4.03;1.90;;;;;;;45.62;5.09;99946.84;5071696;28;20036;-69
2023/06/21 06:43:27;;;;;;;6.90;1.58;;;;;;;46.51;4.67;99936.34;5072240;28;20037;-70
2023/06/21 06:45:53;;;;;;;6.20;1.85;;;;;;;46.64;4.22;99950.38;5072305;28;20029;-69
2023/06/21 06:48:18;;;;;;;6.60;1.90;;;;;;;46.31;4.57;99960.91;5070405;28;20442;-71
2023/06/21 06:50:44;;;;;;;4.90;2.00;;;;;;;46.03;4.54;99964.56;5072504;28;20098;-71
2023/06/21 06:53:09;;;;;;;7.28;1.90;;;;;;;46.06;4.81;99955.34;5072237;28;20466;-70
2023/06/21 06:55:35;;;;;;;2.38;1.70;;;;;;;46.42;4.45;99961.97;5071370;28;20032;-71
2023/06/21 06:58:01;;;;;;;4.80;1.95;;;;;;;45.79;4.73;99974.81;5072084;28;20025;-70
2023/06/21 07:00:27;;;;;;;5.47;1.77;;;;;;;45.54;4.67;99974.06;5071853;28;20032;-70
2023/06/21 07:02:57;;;;;;;4.22;1.55;;;;;;;46.02;4.22;99957.25;5072204;28;20029;-70
2023/06/21 07:05:26;;;;;;;3.25;1.85;;;;;;;46.52;4.42;99965.47;5072260;28;20051;-69
2023/06/21 07:07:52;;;;;;;3.55;1.52;;;;;;;46.02;4.53;99965.75;5072394;28;20035;-70
2023/06/21 07:10:18;;;;;;;3.47;1.67;;;;;;;46.33;4.15;99975.50;5074766;28;20032;-70
2023/06/21 07:12:45;;;;;;;3.45;1.52;;;;;;;46.59;4.29;99971.31;5075959;28;20029;-71
2023/06/21 07:15:10;;;;;;;4.65;1.77;;;;;;;46.21;4.29;99969.91;5075733;28;20500;-70
2023/06/21 07:17:36;;;;;;;1.80;1.70;;;;;;;46.07;4.26;99957.00;5074918;28;20494;-67
2023/06/21 07:20:03;;;;;;;1.98;1.55;;;;;;;46.48;3.98;99958.88;5079077;28;20157;-68
2023/06/21 07:22:29;;;;;;;3.67;2.03;;;;;;;46.69;4.00;99962.25;5073142;28;20040;-70
2023/06/21 07:24:55;;;;;;;6.35;1.70;;;;;;;47.12;3.71;99970.97;5081161;28;20403;-71
2023/06/21 07:27:21;;;;;;;4.97;1.85;;;;;;;46.81;4.02;99966.19;5077673;28;20585;-68
2023/06/21 07:29:46;;;;;;;3.13;1.60;;;;;;;46.77;4.17;99962.41;5075625;28;20039;-70
2023/06/21 07:32:12;;;;;;;1.90;1.70;;;;;;;47.18;4.58;99967.84;5075128;28;20060;-69
2023/06/21 07:34:37;;;;;;;2.97;1.70;;;;;;;47.19;4.11;99964.63;5074814;28;20078;-69
2023/06/21 07:37:03;;;;;;;1.73;1.60;;;;;;;47.51;3.80;99977.91;5074833;28;20024;-69
2023/06/21 07:39:29;;;;;;;2.15;1.63;;;;;;;47.12;3.79;99964.50;5074638;28;20172;-68
2023/06/21 07:41:56;;;;;;;2.13;1.63;;;;;;;47.17;3.53;99977.56;5075076;28;20431;-69
2023/06/21 07:44:22;;;;;;;3.47;1.88;;;;;;;45.90;4.42;99960.16;5073604;28;20036;-69
2023/06/21 07:46:51;;;;;;;7.25;2.00;;;;;;;45.93;4.24;99968.72;5074982;28;20043;-69
2023/06/21 07:49:17;;;;;;;2.35;1.55;;;;;;;45.85;3.82;99970.56;5074254;28;20043;-74
2023/06/21 07:51:43;;;;;;;4.93;1.70;;;;;;;46.36;3.83;99966.28;5075417;28;20040;-72
2023/06/21 07:54:08;;;;;;;2.40;1.50;;;;;;;47.09;3.86;99971.72;5078340;28;20028;-74
2023/06/21 07:56:34;;;;;;;1.80;1.70;;;;;;;47.76;3.54;99969.94;5076040;28;20107;-74
2023/06/21 07:59:00;;;;;;;5.43;1.67;;;;;;;48.24;3.64;99951.81;5073150;28;20115;-73
2023/06/21 08:01:25;;;;;;;2.25;1.70;;;;;;;48.84;2.95;99953.22;5087027;28;20028;-65
2023/06/21 08:03:51;;;;;;;3.20;2.00;;;;;;;48.73;3.28;99963.56;5076824;28;20041;-66
2023/06/21 08:06:16;;;;;;;3.83;2.08;;;;;;;48.68;3.28;99951.31;5079305;28;20031;-65
2023/06/21 08:08:42;;;;;;;2.60;1.88;;;;;;;48.24;3.71;99943.28;5094262;28;20032;-66
2023/06/21 08:11:09;;;;;;;5.18;2.00;;;;;;;47.62;3.78;99976.09;5092662;28;20093;-65
2023/06/21 08:13:34;;;;;;;4.40;2.10;;;;;;;46.92;4.07;99955.94;5080402;28;20058;-67
2023/06/21 08:16:00;;;;;;;2.58;1.70;;;;;;;46.18;4.46;99916.88;5074009;28;20024;-66
2023/06/21 08:18:25;;;;;;;2.53;1.95;;;;;;;45.78;4.62;99927.91;5073068;28;20166;-67
2023/06/21 08:20:51;;;;;;;3.72;1.80;;;;;;;45.80;4.54;99951.00;5090208;28;20109;-68
2023/06/21 08:23:16;;;;;;;3.45;1.90;;;;;;;44.85;5.11;99955.78;5079484;28;20033;-68
2023/06/21 08:25:45;;;;;;;2.90;1.50;;;;;;;42.71;6.32;99950.75;5073530;28;20024;-66
2023/06/21 08:31:38;;;;;;;3.85;1.80;;;;;;;35.28;10.24;99965.38;5066565;28;20553;-63
2023/06/21 08:34:04;;;;;;;5.22;1.88;;;;;;;32.57;11.99;99926.56;5072577;28;20115;-65
2023/06/21 08:36:29;;;;;;;3.83;1.90;;;;;;;30.48;13.55;99921.91;5072336;28;20028;-65
2023/06/21 08:38:55;;;;;;;2.53;1.83;;;;;;;29.24;14.74;99952.88;5078291;28;20107;-64
2023/06/21 08:41:20;;;;;;;1.83;1.73;;;;;;;28.21;16.26;99962.41;5076127;28;20110;-65
2023/06/21 08:43:46;;;;;;;1.77;1.67;;;;;;;27.30;16.52;99944.03;5090425;28;20469;-63
2023/06/21 08:46:12;;;;;;;2.83;2.05;;;;;;;26.75;17.62;99959.47;5073050;28;20125;-64
2023/06/21 08:48:41;;;;;;;3.78;2.13;;;;;;;26.27;18.51;99936.25;5073174;28;20031;-63
2023/06/21 08:51:06;;;;;;;6.85;1.95;;;;;;;25.52;19.01;99963.38;5072802;28;20032;-63
2023/06/21 08:53:38;;;;;;;5.90;2.15;;;;;;;25.11;18.83;99964.59;5073207;28;20115;-63
2023/06/21 08:56:06;;;;;;;4.13;2.03;;;;;;;24.61;20.28;99966.81;5072714;28;20143;-63
2023/06/21 08:58:42;;;;;;;12.25;2.10;;;;;;;24.27;19.78;99933.19;5077027;28;20027;-64
2023/06/21 09:01:09;;;;;;;;;;;;;;;24.79;18.44;99960.69;5081394;28;20040;-63
2023/06/21 09:03:45;;;;;;;7.00;1.98;;;;;;;24.08;20.65;99967.66;5072790;28;20351;-63
2023/06/21 09:06:17;;;;;;;6.88;2.03;;;;;;;23.93;20.89;99965.97;5086919;28;20451;-64
2023/06/21 09:08:46;;;;;;;4.75;2.05;;;;;;;23.91;19.97;99962.59;5094012;28;20107;-65
2023/06/21 09:11:16;;;;;;;2.80;1.65;;;;;;;23.98;20.02;99953.53;5093605;28;20493;-65
2023/06/21 09:13:43;;;;;;;1.95;1.63;;;;;;;24.15;20.17;99946.66;5093278;28;20058;-63
2023/06/21 09:16:10;;;;;;;9.05;2.17;;;;;;;24.16;20.00;99940.13;5090996;28;20141;-63
2023/06/21 09:18:39;;;;;;;6.30;2.40;;;;;;;24.13;20.56;99959.69;5092559;28;20440;-63
2023/06/21 09:21:06;;;;;;;6.40;1.73;;;;;;;24.11;21.16;99944.53;5092528;28;20047;-64
2023/06/21 09:23:32;;;;;;;4.05;2.05;;;;;;;24.00;21.13;99948.72;5091817;28;20443;-65
2023/06/21 09:25:58;;;;;;;7.35;2.15;;;;;;;23.82;21.60;99944.69;5092496;28;20063;-66
2023/06/21 09:28:25;;;;;;;4.53;2.53;;;;;;;23.39;22.04;99924.00;5090045;28;20055;-65
2023/06/21 09:30:50;;;;;;;4.82;1.95;;;;;;;23.08;22.09;99928.91;5071352;28;20044;-66
2023/06/21 09:33:16;;;;;;;5.60;2.33;;;;;;;23.16;21.53;99948.91;5070785;28;20414;-64
2023/06/21 09:35:43;;;;;;;5.10;2.00;;;;;;;23.28;22.00;99951.94;5072191;28;20028;-67
2023/06/21 09:38:33;;;;;;;2.40;1.60;;;;;;;23.25;21.37;99890.34;5072479;28;20036;-62
2023/06/21 09:41:01;;;;;;;3.55;2.50;;;;;;;23.50;21.50;99952.63;5072005;28;20035;-64
2023/06/21 09:43:26;;;;;;;3.80;2.50;;;;;;;23.36;22.01;99936.19;5071823;28;20028;-64
2023/06/21 09:46:09;;;;;;;4.28;2.30;;;;;;;23.41;21.53;99941.03;5072151;28;20461;-64
2023/06/21 09:48:36;;;;;;;3.05;2.33;;;;;;;23.17;22.01;99945.13;5070923;28;20036;-63
2023/06/21 09:51:03;;;;;;;2.35;1.85;;;;;;;23.08;23.03;99947.19;5081199;28;20126;-63
2023/06/21 09:53:28;;;;;;;6.00;2.45;;;;;;;23.07;22.47;99951.81;5092239;28;20032;-65
2023/06/21 09:55:55;;;;;;;3.80;1.90;;;;;;;23.12;22.61;99950.34;5091384;28;20028;-63
2023/06/21 09:58:22;;;;;;;5.28;2.72;;;;;;;23.13;22.77;99955.63;5088648;28;20485;-63
2023/06/21 10:00:47;;;;;;;3.45;2.10;;;;;;;23.23;22.48;99947.06;5072556;28;20082;-63
2023/06/21 10:03:14;;;;;;;4.47;2.08;;;;;;;23.35;22.42;99948.16;5071892;28;20060;-64
2023/06/21 10:05:55;;;;;;;3.72;2.10;;;;;;;23.56;22.17;99946.31;5071525;28;20071;-65
2023/06/21 10:08:24;;;;;;;3.00;2.10;;;;;;;23.55;22.09;99935.63;5054773;28;20055;-64
2023/06/21 10:10:50;;;;;;;4.75;2.30;;;;;;;23.15;22.51;99885.25;5071629;28;20036;-62
2023/06/21 10:13:15;;;;;;;3.35;1.92;;;;;;;23.30;22.77;99945.22;5070814;28;20036;-73
2023/06/21 10:15:45;;;;;;;5.20;2.30;;;;;;;23.30;22.74;99947.94;5072826;28;20047;-65
2023/06/21 10:18:12;;;;;;;3.15;2.17;;;;;;;23.32;22.99;99948.56;5071947;28;20040;-65
2023/06/21 10:20:41;;;;;;;2.65;2.00;;;;;;;23.47;22.75;99928.44;5069607;28;20099;-65
2023/06/21 10:23:08;;;;;;;2.72;1.98;;;;;;;23.78;22.51;99947.00;5071410;28;20062;-66
2023/06/21 10:25:35;;;;;;;2.45;2.20;;;;;;;23.75;22.66;99939.22;5070899;28;20047;-65
2023/06/21 10:28:05;;;;;;;6.18;2.50;;;;;;;23.54;22.71;99928.47;5072564;28;20070;-64
2023/06/21 10:30:33;;;;;;;2.97;2.10;;;;;;;23.50;22.92;99945.25;5070915;28;20028;-67
2023/06/21 10:33:01;;;;;;;4.25;2.25;;;;;;;23.36;22.98;99940.81;5070460;28;20051;-67
2023/06/21 10:35:33;;;;;;;3.72;2.30;;;;;;;23.31;23.15;99946.88;5071779;28;20119;-65
2023/06/21 10:38:09;;;;;;;5.90;3.28;;;;;;;23.52;22.73;99936.88;5071673;28;20063;-65
2023/06/21 10:40:36;;;;;;;5.95;2.83;;;;;;;23.51;22.69;99932.44;5070060;28;20040;-63
2023/06/21 10:43:02;;;;;;;5.10;2.58;;;;;;;23.37;23.30;99926.94;5089136;28;20061;-62
2023/06/21 10:45:30;;;;;;;5.82;2.47;;;;;;;23.24;23.33;99946.00;5085865;28;20044;-63
2023/06/21 10:47:57;;;;;;;7.50;2.38;;;;;;;22.97;23.79;99934.13;5075336;28;20028;-57
2023/06/21 10:50:24;;;;;;;4.85;2.22;;;;;;;22.85;23.66;99942.88;5074867;28;20040;-60
2023/06/21 10:52:54;;;;;;;4.47;2.40;;;;;;;23.11;23.61;99941.31;5075021;28;20103;-52
2023/06/21 10:55:21;;;;;;;2.92;2.00;;;;;;;23.49;22.67;99931.81;5075712;28;20100;-52
2023/06/21 10:57:53;;;;;;;3.95;2.40;;;;;;;23.84;22.29;99907.03;5075598;28;20031;-62
2023/06/21 11:00:21;;;;;;;3.97;2.00;;;;;;;24.42;21.52;99938.41;5074875;28;20107;-62
2023/06/21 11:02:47;;;;;;;5.35;2.53;;;;;;;24.51;21.21;99937.13;5075745;28;20021;-59
2023/06/21 11:05:16;;;;;;;9.85;2.65;;;;;;;24.10;21.86;99921.81;5075630;28;20044;-57
2023/06/21 11:07:56;;;;;;;7.68;2.22;;;;;;;24.12;22.28;99947.06;5074879;28;20475;-54
2023/06/21 11:10:37;;;;;;;4.05;2.20;;;;;;;23.81;22.57;99940.28;5088713;28;20447;-54
2023/06/21 11:13:02;;;;;;;5.20;2.40;;;;;;;23.43;23.45;99938.13;5093348;28;20039;-55
2023/06/21 11:15:30;;;;;;;2.63;2.30;;;;;;;23.49;22.98;99926.34;5095865;28;20040;-60
2023/06/21 11:18:07;;;;;;;4.25;2.30;;;;;;;23.67;22.63;99944.06;5094339;28;20024;-56
2023/06/21 11:20:46;;;;;;;7.15;2.20;;;;;;;23.83;22.79;99929.13;5092415;28;20039;-70
2023/06/21 11:23:16;;;;;;;2.35;2.13;;;;;;;23.95;22.74;99935.66;5073879;28;20025;-64
2023/06/21 11:25:50;;;;;;;3.08;2.25;;;;;;;24.18;21.94;99932.53;5073696;28;20028;-66
2023/06/21 11:28:18;;;;;;;6.07;2.20;;;;;;;24.31;22.03;99934.44;5074970;28;20032;-65
2023/06/21 11:31:03;;;;;;;3.90;2.03;;;;;;;24.61;21.75;99939.44;5073851;28;20079;-63
2023/06/21 11:33:47;;;;;;;7.25;1.95;;;;;;;24.56;21.74;99919.22;5073899;28;20090;-64
2023/06/21 11:36:13;;;;;;;4.15;2.20;;;;;;;24.20;22.62;99927.72;5076084;28;20071;-59
2023/06/21 11:39:08;;;;;;;3.45;2.25;;;;;;;23.99;22.42;99936.09;5080098;28;20047;-64